createdAt,value
2017-03-26T00:00:18.274Z,19.23
2017-03-26T00:01:31.046Z,19.29
2017-03-26T00:02:44.270Z,19.25
2017-03-26T00:03:57.503Z,19.25
2017-03-26T00:05:10.228Z,19.32
2017-03-26T00:06:23.505Z,19.29
2017-03-26T00:07:36.803Z,19.25
2017-03-26T00:08:50.143Z,19.31
2017-03-26T00:10:03.390Z,19.33
2017-03-26T00:11:16.169Z,19.29
2017-03-26T00:12:29.439Z,19.22
2017-03-26T00:13:42.682Z,19.32
2017-03-26T00:14:55.973Z,19.21
2017-03-26T00:16:08.738Z,19.26
2017-03-26T00:17:22.063Z,19.23
2017-03-26T00:18:35.350Z,19.19
2017-03-26T00:19:48.584Z,19.22
2017-03-26T00:21:01.841Z,19.25
2017-03-26T00:22:15.120Z,19.14
2017-03-26T00:23:28.381Z,19.25
2017-03-26T00:24:41.137Z,19.18
2017-03-26T00:25:54.396Z,19.18
2017-03-26T00:27:07.659Z,19.16
2017-03-26T00:28:20.927Z,19.07
2017-03-26T00:29:34.192Z,19.08
2017-03-26T00:30:46.972Z,19.06
2017-03-26T00:32:00.219Z,19.07
2017-03-26T00:33:13.498Z,19.1
2017-03-26T00:34:26.756Z,18.92
2017-03-26T00:35:39.985Z,18.99
2017-03-26T00:36:53.238Z,18.94
2017-03-26T00:38:06.506Z,18.98
2017-03-26T00:39:19.242Z,19
2017-03-26T00:40:32.040Z,18.99
2017-03-26T00:41:45.321Z,19.07
2017-03-26T00:42:58.560Z,19.07
2017-03-26T00:44:11.803Z,19.08
2017-03-26T00:45:25.090Z,19
2017-03-26T00:46:37.321Z,18.98
2017-03-26T00:47:50.545Z,19.04
2017-03-26T00:49:03.290Z,19
2017-03-26T00:50:16.555Z,18.92
2017-03-26T00:51:29.291Z,18.85
2017-03-26T00:52:42.582Z,18.91
2017-03-26T00:53:55.954Z,18.85
2017-03-26T00:55:08.731Z,18.91
2017-03-26T00:56:21.997Z,18.84
2017-03-26T00:57:35.314Z,18.92
2017-03-26T00:58:48.935Z,18.81
2017-03-26T01:00:02.859Z,18.85
2017-03-26T01:01:16.247Z,18.87
2017-03-26T01:02:30.177Z,18.85
2017-03-26T01:03:44.151Z,18.84
2017-03-26T01:04:58.105Z,18.9
2017-03-26T01:06:12.032Z,18.88
2017-03-26T01:07:25.970Z,19.04
2017-03-26T01:08:39.902Z,18.95
2017-03-26T01:09:53.855Z,18.94
2017-03-26T01:11:07.822Z,18.99
2017-03-26T01:12:21.212Z,18.99
2017-03-26T01:13:34.609Z,18.95
2017-03-26T01:14:48.562Z,19.08
2017-03-26T01:16:02.520Z,19.07
2017-03-26T01:17:15.910Z,19.07
2017-03-26T01:18:29.323Z,19.07
2017-03-26T01:19:43.264Z,19.06
2017-03-26T01:20:57.194Z,19.04
2017-03-26T01:22:10.619Z,19.11
2017-03-26T01:23:24.579Z,19.07
2017-03-26T01:24:38.531Z,18.99
2017-03-26T01:25:52.445Z,19.08
2017-03-26T01:27:05.855Z,19.04
2017-03-26T01:28:19.234Z,19.04
2017-03-26T01:29:32.637Z,19
2017-03-26T01:30:46.017Z,19.02
2017-03-26T01:31:59.947Z,19.02
2017-03-26T01:33:13.898Z,18.99
2017-03-26T01:34:27.818Z,18.98
2017-03-26T01:35:41.771Z,18.95
2017-03-26T01:36:55.739Z,18.99
2017-03-26T01:38:09.674Z,18.98
2017-03-26T01:39:23.048Z,18.85
2017-03-26T01:40:37.007Z,18.88
2017-03-26T01:41:50.957Z,18.94
2017-03-26T01:43:04.904Z,19.04
2017-03-26T01:44:18.901Z,19.02
2017-03-26T01:45:32.853Z,18.95
2017-03-26T01:46:46.804Z,19.02
2017-03-26T01:48:00.763Z,18.95
2017-03-26T01:49:14.712Z,18.95
2017-03-26T01:50:28.068Z,18.88
2017-03-26T01:51:42.019Z,18.94
2017-03-26T01:52:55.955Z,18.9
2017-03-26T01:54:09.891Z,19.06
2017-03-26T01:55:23.836Z,18.99
2017-03-26T01:56:37.797Z,18.92
2017-03-26T01:57:51.154Z,19
2017-03-26T01:59:05.078Z,18.95
2017-03-26T02:00:19.013Z,18.9
2017-03-26T02:01:32.430Z,19.02
2017-03-26T02:02:46.396Z,19.04
2017-03-26T02:04:00.361Z,19.08
2017-03-26T02:05:14.560Z,18.98
2017-03-26T02:06:28.095Z,18.98
2017-03-26T02:07:41.470Z,19
2017-03-26T02:08:55.475Z,18.95
2017-03-26T02:10:09.433Z,18.99
2017-03-26T02:11:23.365Z,19.06
2017-03-26T02:12:37.307Z,18.94
2017-03-26T02:13:51.265Z,18.98
2017-03-26T02:15:05.219Z,18.98
2017-03-26T02:16:19.189Z,18.88
2017-03-26T02:17:33.150Z,18.9
2017-03-26T02:18:46.515Z,18.98
2017-03-26T02:20:00.473Z,18.91
2017-03-26T02:21:13.851Z,18.88
2017-03-26T02:22:27.792Z,18.92
2017-03-26T02:23:41.785Z,18.92
2017-03-26T02:24:55.728Z,18.88
2017-03-26T02:26:09.668Z,18.85
2017-03-26T02:27:23.605Z,18.7
2017-03-26T02:28:37.603Z,18.81
2017-03-26T02:29:51.561Z,18.81
2017-03-26T02:31:05.483Z,18.78
2017-03-26T02:32:19.483Z,18.67
2017-03-26T02:33:33.441Z,18.7
2017-03-26T02:34:47.384Z,18.66
2017-03-26T02:36:01.319Z,18.66
2017-03-26T02:37:15.289Z,18.65
2017-03-26T02:38:28.193Z,18.67
2017-03-26T02:39:41.026Z,18.6
2017-03-26T02:40:54.941Z,18.6
2017-03-26T02:42:08.925Z,18.6
2017-03-26T02:43:22.859Z,18.69
2017-03-26T02:44:36.800Z,18.66
2017-03-26T02:45:50.742Z,18.69
2017-03-26T02:47:04.668Z,18.63
2017-03-26T02:48:18.629Z,18.58
2017-03-26T02:49:32.042Z,18.58
2017-03-26T02:50:45.945Z,18.65
2017-03-26T02:51:59.888Z,18.47
2017-03-26T02:53:13.836Z,18.51
2017-03-26T02:54:27.768Z,18.51
2017-03-26T02:55:41.738Z,18.48
2017-03-26T02:56:55.690Z,18.47
2017-03-26T02:58:09.640Z,18.47
2017-03-26T02:59:23.600Z,18.55
2017-03-26T03:00:37.008Z,18.45
2017-03-26T03:01:50.978Z,18.36
2017-03-26T03:03:04.989Z,18.33
2017-03-26T03:04:18.966Z,18.3
2017-03-26T03:05:32.951Z,18.3
2017-03-26T03:06:46.374Z,18.25
2017-03-26T03:07:59.741Z,18.21
2017-03-26T03:09:13.679Z,18.18
2017-03-26T03:10:27.645Z,18.1
2017-03-26T03:11:41.059Z,18.18
2017-03-26T03:12:55.006Z,18.23
2017-03-26T03:14:08.950Z,18.17
2017-03-26T03:15:22.923Z,18.21
2017-03-26T03:16:36.879Z,18.29
2017-03-26T03:17:50.841Z,18.32
2017-03-26T03:19:04.816Z,18.29
2017-03-26T03:20:18.741Z,18.35
2017-03-26T03:21:32.696Z,18.44
2017-03-26T03:22:46.659Z,18.39
2017-03-26T03:24:00.052Z,18.51
2017-03-26T03:25:14.014Z,18.37
2017-03-26T03:26:27.924Z,18.37
2017-03-26T03:27:41.289Z,18.3
2017-03-26T03:28:55.203Z,18.17
2017-03-26T03:30:09.131Z,18.17
2017-03-26T03:31:23.074Z,18.12
2017-03-26T03:32:37.042Z,18.21
2017-03-26T03:33:51.032Z,18.2
2017-03-26T03:35:04.971Z,18.12
2017-03-26T03:36:18.340Z,18.15
2017-03-26T03:37:32.283Z,18.23
2017-03-26T03:38:45.088Z,18.18
2017-03-26T03:39:59.026Z,18.21
2017-03-26T03:41:12.972Z,18.25
2017-03-26T03:42:26.893Z,18.2
2017-03-26T03:43:40.263Z,18.11
2017-03-26T03:44:54.223Z,18.12
2017-03-26T03:46:08.219Z,18.2
2017-03-26T03:47:22.149Z,18.2
2017-03-26T03:48:36.090Z,18.14
2017-03-26T03:49:49.459Z,18.15
2017-03-26T03:51:03.421Z,18.17
2017-03-26T03:52:17.406Z,18.25
2017-03-26T03:53:31.364Z,18.21
2017-03-26T03:54:44.745Z,18.15
2017-03-26T03:55:58.724Z,18.11
2017-03-26T03:57:12.698Z,18.2
2017-03-26T03:58:26.646Z,18.14
2017-03-26T03:59:40.038Z,18.15
2017-03-26T04:00:53.977Z,18.12
2017-03-26T04:02:07.880Z,18.18
2017-03-26T04:03:21.288Z,18.2
2017-03-26T04:04:35.216Z,18.15
2017-03-26T04:05:49.165Z,18.1
2017-03-26T04:07:03.074Z,18.07
2017-03-26T04:08:16.454Z,18.12
2017-03-26T04:09:30.451Z,18.07
2017-03-26T04:10:43.853Z,18.07
2017-03-26T04:11:57.812Z,18.03
2017-03-26T04:13:11.747Z,18.02
2017-03-26T04:14:25.695Z,17.95
2017-03-26T04:15:39.634Z,18.02
2017-03-26T04:16:53.629Z,18.1
2017-03-26T04:18:07.564Z,18.08
2017-03-26T04:19:20.989Z,18.07
2017-03-26T04:20:34.928Z,18.03
2017-03-26T04:21:48.892Z,18
2017-03-26T04:23:02.811Z,18.02
2017-03-26T04:24:16.770Z,17.95
2017-03-26T04:25:30.696Z,17.95
2017-03-26T04:26:44.673Z,17.96
2017-03-26T04:27:58.673Z,17.95
2017-03-26T04:29:12.601Z,17.95
2017-03-26T04:30:26.534Z,17.93
2017-03-26T04:31:40.518Z,17.96
2017-03-26T04:32:53.878Z,18
2017-03-26T04:34:07.861Z,17.96
2017-03-26T04:35:21.836Z,17.99
2017-03-26T04:36:35.822Z,17.96
2017-03-26T04:37:49.212Z,17.95
2017-03-26T04:39:03.130Z,17.96
2017-03-26T04:40:17.067Z,18.02
2017-03-26T04:41:30.463Z,17.96
2017-03-26T04:42:44.399Z,17.86
2017-03-26T04:43:58.370Z,17.95
2017-03-26T04:45:11.771Z,17.93
2017-03-26T04:46:25.705Z,17.84
2017-03-26T04:47:39.663Z,17.93
2017-03-26T04:48:53.610Z,17.96
2017-03-26T04:50:07.547Z,17.93
2017-03-26T04:51:21.454Z,17.92
2017-03-26T04:52:35.368Z,17.89
2017-03-26T04:53:49.334Z,17.86
2017-03-26T04:55:03.315Z,17.84
2017-03-26T04:56:15.577Z,17.78
2017-03-26T04:57:29.628Z,17.81
2017-03-26T04:58:43.580Z,17.7
2017-03-26T04:59:57.514Z,17.71
2017-03-26T05:01:11.470Z,17.64
2017-03-26T05:02:25.391Z,17.63
2017-03-26T05:03:39.317Z,17.7
2017-03-26T05:04:52.673Z,17.64
2017-03-26T05:06:06.599Z,17.68
2017-03-26T05:07:20.552Z,17.63
2017-03-26T05:08:34.541Z,17.62
2017-03-26T05:09:48.504Z,17.64
2017-03-26T05:11:02.460Z,17.51
2017-03-26T05:12:15.871Z,17.43
2017-03-26T05:13:29.226Z,17.48
2017-03-26T05:14:43.681Z,17.41
2017-03-26T05:15:56.919Z,17.41
2017-03-26T05:17:10.150Z,17.49
2017-03-26T05:18:23.385Z,17.46
2017-03-26T05:19:36.597Z,17.49
2017-03-26T05:20:49.821Z,17.46
2017-03-26T05:22:03.038Z,17.52
2017-03-26T05:23:15.831Z,17.46
2017-03-26T05:24:29.119Z,17.46
2017-03-26T05:25:42.332Z,17.48
2017-03-26T05:26:55.531Z,17.46
2017-03-26T05:28:08.757Z,17.48
2017-03-26T05:29:22.012Z,17.37
2017-03-26T05:30:34.732Z,17.55
2017-03-26T05:31:47.935Z,17.52
2017-03-26T05:33:00.636Z,17.43
2017-03-26T05:34:13.863Z,17.46
2017-03-26T05:35:27.111Z,17.52
2017-03-26T05:36:40.348Z,17.46
2017-03-26T05:37:53.136Z,17.43
2017-03-26T05:39:06.382Z,17.44
2017-03-26T05:40:19.627Z,17.46
2017-03-26T05:41:32.854Z,17.46
2017-03-26T05:42:46.082Z,17.43
2017-03-26T05:43:59.321Z,17.44
2017-03-26T05:45:12.553Z,17.43
2017-03-26T05:46:25.268Z,17.56
2017-03-26T05:47:38.489Z,17.58
2017-03-26T05:48:51.732Z,17.58
2017-03-26T05:50:04.439Z,17.64
2017-03-26T05:51:17.691Z,17.56
2017-03-26T05:52:30.919Z,17.62
2017-03-26T05:53:44.159Z,17.58
2017-03-26T05:54:56.386Z,17.59
2017-03-26T05:56:09.645Z,17.63
2017-03-26T05:57:22.865Z,17.64
2017-03-26T05:58:35.614Z,17.63
2017-03-26T05:59:48.349Z,17.52
2017-03-26T06:01:01.603Z,17.54
2017-03-26T06:02:14.846Z,17.43
2017-03-26T06:03:28.101Z,17.4
2017-03-26T06:04:41.337Z,17.34
2017-03-26T06:05:54.601Z,17.34
2017-03-26T06:07:07.874Z,17.38
2017-03-26T06:08:21.143Z,17.37
2017-03-26T06:09:34.401Z,17.33
2017-03-26T06:10:47.619Z,17.37
2017-03-26T06:12:00.803Z,17.36
2017-03-26T06:13:14.015Z,17.4
2017-03-26T06:14:27.272Z,17.36
2017-03-26T06:15:39.982Z,17.37
2017-03-26T06:16:53.268Z,17.3
2017-03-26T06:18:06.535Z,17.36
2017-03-26T06:19:19.261Z,17.33
2017-03-26T06:20:32.502Z,17.37
2017-03-26T06:21:45.712Z,17.33
2017-03-26T06:22:58.987Z,17.36
2017-03-26T06:24:12.218Z,17.33
2017-03-26T06:25:25.463Z,17.21
2017-03-26T06:26:38.702Z,17.34
2017-03-26T06:27:51.967Z,17.21
2017-03-26T06:29:05.194Z,17.23
2017-03-26T06:30:18.453Z,17.16
2017-03-26T06:31:31.185Z,17.16
2017-03-26T06:32:44.415Z,17.23
2017-03-26T06:33:57.634Z,17.23
2017-03-26T06:35:10.872Z,17.15
2017-03-26T06:36:24.100Z,17.18
2017-03-26T06:37:37.362Z,17.19
2017-03-26T06:38:50.624Z,17.25
2017-03-26T06:40:03.858Z,17.19
2017-03-26T06:41:17.102Z,17.18
2017-03-26T06:42:29.805Z,17.16
2017-03-26T06:43:43.058Z,17.21
2017-03-26T06:44:56.301Z,17.21
2017-03-26T06:46:09.529Z,17.19
2017-03-26T06:47:22.785Z,17.21
2017-03-26T06:48:36.041Z,17.16
2017-03-26T06:49:49.285Z,17.18
2017-03-26T06:51:02.517Z,17.18
2017-03-26T06:52:15.727Z,17.15
2017-03-26T06:53:28.957Z,17.18
2017-03-26T06:54:42.175Z,17.19
2017-03-26T06:55:55.378Z,17.18
2017-03-26T06:57:08.590Z,17.21
2017-03-26T06:58:21.827Z,17.18
2017-03-26T06:59:34.047Z,17.19
2017-03-26T07:00:47.293Z,17.22
2017-03-26T07:02:00.518Z,17.28
2017-03-26T07:03:13.764Z,17.23
2017-03-26T07:04:26.473Z,17.21
2017-03-26T07:05:39.692Z,17.31
2017-03-26T07:06:52.922Z,17.22
2017-03-26T07:08:06.129Z,17.16
2017-03-26T07:09:18.341Z,17.22
2017-03-26T07:10:31.606Z,17.25
2017-03-26T07:11:44.820Z,17.23
2017-03-26T07:12:58.091Z,17.3
2017-03-26T07:14:11.323Z,17.21
2017-03-26T07:15:24.573Z,17.21
2017-03-26T07:16:37.349Z,17.22
2017-03-26T07:17:50.595Z,17.25
2017-03-26T07:19:03.823Z,17.21
2017-03-26T07:20:17.091Z,17.22
2017-03-26T07:21:30.322Z,17.3
2017-03-26T07:22:43.562Z,17.25
2017-03-26T07:23:56.796Z,17.26
2017-03-26T07:25:10.014Z,17.22
2017-03-26T07:26:22.760Z,17.26
2017-03-26T07:27:36.044Z,17.22
2017-03-26T07:28:49.251Z,17.14
2017-03-26T07:30:02.485Z,17.21
2017-03-26T07:31:14.208Z,17.15
2017-03-26T07:32:26.961Z,17.28
2017-03-26T07:33:40.209Z,17.16
2017-03-26T07:34:53.433Z,17.25
2017-03-26T07:36:06.649Z,17.18
2017-03-26T07:37:19.862Z,17.19
2017-03-26T07:38:33.077Z,17.08
2017-03-26T07:39:46.295Z,17.12
2017-03-26T07:40:59.516Z,17.06
2017-03-26T07:42:12.226Z,17
2017-03-26T07:43:24.981Z,16.98
2017-03-26T07:44:38.239Z,16.85
2017-03-26T07:45:51.467Z,16.83
2017-03-26T07:47:04.679Z,16.81
2017-03-26T07:48:16.892Z,16.71
2017-03-26T07:49:30.138Z,16.67
2017-03-26T07:50:43.369Z,16.58
2017-03-26T07:51:56.634Z,16.66
2017-03-26T07:53:09.372Z,16.57
2017-03-26T07:54:22.629Z,16.45
2017-03-26T07:55:35.388Z,16.46
2017-03-26T07:56:48.632Z,16.48
2017-03-26T07:58:01.868Z,16.41
2017-03-26T07:59:14.615Z,16.38
2017-03-26T08:00:27.340Z,16.39
2017-03-26T08:01:40.046Z,16.48
2017-03-26T08:02:53.264Z,16.53
2017-03-26T08:04:05.983Z,16.5
2017-03-26T08:05:18.709Z,16.5
2017-03-26T08:06:31.974Z,16.63
2017-03-26T08:07:45.217Z,16.63
2017-03-26T08:08:58.514Z,16.61
2017-03-26T08:10:10.699Z,16.68
2017-03-26T08:11:22.943Z,16.66
2017-03-26T08:12:36.156Z,16.67
2017-03-26T08:13:49.390Z,16.73
2017-03-26T08:15:02.617Z,16.78
2017-03-26T08:16:15.295Z,16.71
2017-03-26T08:17:28.505Z,16.71
2017-03-26T08:18:41.710Z,16.68
2017-03-26T08:19:54.902Z,16.78
2017-03-26T08:21:08.112Z,16.85
2017-03-26T08:22:21.323Z,16.86
2017-03-26T08:23:34.537Z,16.85
2017-03-26T08:24:47.783Z,16.81
2017-03-26T08:26:01.035Z,16.85
2017-03-26T08:27:14.269Z,16.78
2017-03-26T08:28:26.988Z,16.76
2017-03-26T08:29:40.218Z,16.76
2017-03-26T08:30:53.409Z,16.78
2017-03-26T08:32:06.616Z,16.71
2017-03-26T08:33:19.795Z,16.68
2017-03-26T08:34:33.029Z,16.64
2017-03-26T08:35:46.266Z,16.73
2017-03-26T08:36:59.483Z,16.68
2017-03-26T08:38:12.678Z,16.67
2017-03-26T08:39:25.912Z,16.71
2017-03-26T08:40:39.136Z,16.76
2017-03-26T08:41:51.838Z,16.71
2017-03-26T08:43:05.075Z,16.76
2017-03-26T08:44:18.269Z,16.81
2017-03-26T08:45:31.493Z,16.75
2017-03-26T08:46:44.691Z,16.76
2017-03-26T08:47:57.899Z,16.79
2017-03-26T08:49:11.115Z,16.81
2017-03-26T08:50:24.339Z,16.76
2017-03-26T08:51:37.023Z,16.76
2017-03-26T08:52:50.230Z,16.71
2017-03-26T08:54:03.486Z,16.76
2017-03-26T08:55:15.678Z,16.82
2017-03-26T08:56:28.874Z,16.75
2017-03-26T08:57:41.070Z,16.73
2017-03-26T08:58:54.320Z,16.78
2017-03-26T09:00:07.007Z,16.78
2017-03-26T09:01:20.214Z,16.82
2017-03-26T09:02:33.415Z,16.81
2017-03-26T09:03:46.613Z,16.83
2017-03-26T09:04:59.824Z,16.7
2017-03-26T09:06:13.024Z,16.67
2017-03-26T09:07:26.273Z,16.67
2017-03-26T09:08:38.985Z,16.61
2017-03-26T09:09:52.180Z,16.66
2017-03-26T09:11:05.382Z,16.49
2017-03-26T09:12:18.608Z,16.56
2017-03-26T09:13:31.828Z,16.57
2017-03-26T09:14:45.022Z,16.58
2017-03-26T09:15:57.236Z,16.5
2017-03-26T09:17:10.477Z,16.49
2017-03-26T09:18:23.188Z,16.6
2017-03-26T09:19:36.416Z,16.5
2017-03-26T09:20:49.642Z,16.57
2017-03-26T09:22:02.847Z,16.49
2017-03-26T09:23:16.065Z,16.5
2017-03-26T09:24:29.296Z,16.49
2017-03-26T09:25:42.545Z,16.57
2017-03-26T09:26:55.817Z,16.61
2017-03-26T09:28:09.055Z,16.73
2017-03-26T09:29:22.292Z,16.73
2017-03-26T09:30:34.476Z,16.67
2017-03-26T09:31:47.678Z,16.89
2017-03-26T09:33:00.947Z,16.85
2017-03-26T09:34:13.688Z,16.94
2017-03-26T09:35:26.382Z,17.21
2017-03-26T09:36:39.093Z,17.37
2017-03-26T09:37:52.305Z,17.56
2017-03-26T09:39:05.559Z,17.74
2017-03-26T09:40:18.794Z,18
2017-03-26T09:41:30.510Z,18.15
2017-03-26T09:42:43.739Z,18.57
2017-03-26T09:43:56.939Z,18.75
2017-03-26T09:45:09.671Z,19.07
2017-03-26T09:46:22.918Z,19.36
2017-03-26T09:47:36.167Z,19.66
2017-03-26T09:48:49.444Z,19.83
2017-03-26T09:50:02.701Z,20.08
2017-03-26T09:51:15.948Z,20.31
2017-03-26T09:52:28.675Z,20.58
2017-03-26T09:53:41.924Z,20.82
2017-03-26T09:54:54.665Z,21.1
2017-03-26T09:56:07.859Z,21.25
2017-03-26T09:57:20.566Z,21.42
2017-03-26T09:58:33.282Z,21.59
2017-03-26T09:59:46.484Z,21.74
2017-03-26T10:00:59.724Z,21.74
2017-03-26T10:02:12.996Z,21.77
2017-03-26T10:03:26.222Z,21.9
2017-03-26T10:04:39.489Z,21.9
2017-03-26T10:05:52.745Z,21.92
2017-03-26T10:07:06.008Z,21.71
2017-03-26T10:08:19.357Z,21.82
2017-03-26T10:09:32.615Z,21.62
2017-03-26T10:10:45.836Z,21.29
2017-03-26T10:11:59.112Z,20.67
2017-03-26T10:13:12.353Z,20.43
2017-03-26T10:14:25.578Z,20.05
2017-03-26T10:15:38.809Z,19.83
2017-03-26T10:16:52.044Z,19.65
2017-03-26T10:18:05.258Z,19.56
2017-03-26T10:19:18.501Z,19.5
2017-03-26T10:20:31.737Z,19.44
2017-03-26T10:21:44.957Z,19.36
2017-03-26T10:22:58.150Z,19.33
2017-03-26T10:24:11.373Z,19.33
2017-03-26T10:25:24.605Z,19.33
2017-03-26T10:26:37.871Z,19.36
2017-03-26T10:27:51.062Z,19.5
2017-03-26T10:29:04.328Z,19.69
2017-03-26T10:30:17.522Z,20.5
2017-03-26T10:31:30.315Z,21.17
2017-03-26T10:32:43.588Z,21.77
2017-03-26T10:33:56.852Z,22.57
2017-03-26T10:35:09.586Z,23.2
2017-03-26T10:36:22.321Z,23.85
2017-03-26T10:37:35.559Z,24.6
2017-03-26T10:38:48.807Z,24.91
2017-03-26T10:40:02.059Z,24.77
2017-03-26T10:41:15.267Z,24.43
2017-03-26T10:42:28.514Z,24.09
2017-03-26T10:43:41.776Z,23.72
2017-03-26T10:44:54.522Z,23.54
2017-03-26T10:46:07.241Z,23.33
2017-03-26T10:47:20.492Z,23.28
2017-03-26T10:48:33.746Z,23.27
2017-03-26T10:49:47.000Z,23.16
2017-03-26T10:50:59.757Z,23.01
2017-03-26T10:52:13.046Z,22.65
2017-03-26T10:53:26.272Z,22.42
2017-03-26T10:54:39.512Z,22.39
2017-03-26T10:55:52.781Z,22.6
2017-03-26T10:57:06.107Z,22.98
2017-03-26T10:58:18.836Z,23.28
2017-03-26T10:59:32.187Z,23.36
2017-03-26T11:00:45.450Z,23.23
2017-03-26T11:01:58.677Z,23.2
2017-03-26T11:03:11.910Z,23.31
2017-03-26T11:04:24.626Z,23.42
2017-03-26T11:05:37.353Z,23.57
2017-03-26T11:06:50.617Z,23.65
2017-03-26T11:08:03.887Z,23.54
2017-03-26T11:09:16.624Z,23.05
2017-03-26T11:10:29.386Z,22.72
2017-03-26T11:11:42.622Z,22.25
2017-03-26T11:12:55.916Z,22.1
2017-03-26T11:14:09.138Z,22.07
2017-03-26T11:15:22.378Z,22.18
2017-03-26T11:16:35.117Z,22.49
2017-03-26T11:17:48.383Z,23.04
2017-03-26T11:19:01.644Z,23.75
2017-03-26T11:20:14.885Z,23.97
2017-03-26T11:21:27.101Z,24.18
2017-03-26T11:22:38.816Z,24.15
2017-03-26T11:23:51.551Z,24.08
2017-03-26T11:25:03.838Z,24.02
2017-03-26T11:26:17.101Z,23.87
2017-03-26T11:27:30.389Z,23.85
2017-03-26T11:28:43.632Z,23.84
2017-03-26T11:29:56.381Z,23.8
2017-03-26T11:31:09.619Z,23.93
2017-03-26T11:32:22.851Z,23.58
2017-03-26T11:33:36.096Z,23.13
2017-03-26T11:34:49.314Z,22.95
2017-03-26T11:36:02.560Z,23.02
2017-03-26T11:37:15.854Z,22.7
2017-03-26T11:38:28.560Z,22.39
2017-03-26T11:39:41.798Z,22.45
2017-03-26T11:40:55.029Z,22.1
2017-03-26T11:42:08.339Z,22
2017-03-26T11:43:21.559Z,21.8
2017-03-26T11:44:33.775Z,21.79
2017-03-26T11:45:47.134Z,21.9
2017-03-26T11:47:00.357Z,21.9
2017-03-26T11:48:13.570Z,22.22
2017-03-26T11:49:26.796Z,22.73
2017-03-26T11:50:39.560Z,23.46
2017-03-26T11:51:52.267Z,24.27
2017-03-26T11:53:05.500Z,24.77
2017-03-26T11:54:18.750Z,25.03
2017-03-26T11:55:31.469Z,25.33
2017-03-26T11:56:44.162Z,25.36
2017-03-26T11:57:56.898Z,25.17
2017-03-26T11:59:09.651Z,25.06
2017-03-26T12:00:21.891Z,25.03
2017-03-26T12:01:35.112Z,25.23
2017-03-26T12:02:48.359Z,25.15
2017-03-26T12:04:01.652Z,24.77
2017-03-26T12:05:14.908Z,24.81
2017-03-26T12:06:28.179Z,24.39
2017-03-26T12:07:41.422Z,24.21
2017-03-26T12:08:54.660Z,24.08
2017-03-26T12:10:06.860Z,24.53
2017-03-26T12:11:18.040Z,25.3
2017-03-26T12:12:31.278Z,25.45
2017-03-26T12:13:44.503Z,25.13
2017-03-26T12:14:57.806Z,24.55
2017-03-26T12:16:09.517Z,24.4
2017-03-26T12:17:22.744Z,24.37
2017-03-26T12:18:36.040Z,24.73
2017-03-26T12:19:49.304Z,25.08
2017-03-26T12:21:02.545Z,25.33
2017-03-26T12:22:15.824Z,25.58
2017-03-26T12:23:28.075Z,26.17
2017-03-26T12:24:41.303Z,26.52
2017-03-26T12:25:54.625Z,26.6
2017-03-26T12:27:07.912Z,26.25
2017-03-26T12:28:21.140Z,25.95
2017-03-26T12:29:34.395Z,26.09
2017-03-26T12:30:47.627Z,26.25
2017-03-26T12:32:00.372Z,25.69
2017-03-26T12:33:13.638Z,24.88
2017-03-26T12:34:26.904Z,24.21
2017-03-26T12:35:40.172Z,24.02
2017-03-26T12:36:52.400Z,24.18
2017-03-26T12:38:05.719Z,24.4
2017-03-26T12:39:18.475Z,24.9
2017-03-26T12:40:31.736Z,25.14
2017-03-26T12:41:45.011Z,25.36
2017-03-26T12:42:57.773Z,25.02
2017-03-26T12:44:11.007Z,24.64
2017-03-26T12:45:24.252Z,24.67
2017-03-26T12:46:37.486Z,24.62
2017-03-26T12:47:50.213Z,24.55
2017-03-26T12:49:02.426Z,24.08
2017-03-26T12:50:15.685Z,24.09
2017-03-26T12:51:28.906Z,24.39
2017-03-26T12:52:42.181Z,24.32
2017-03-26T12:53:55.474Z,24.42
2017-03-26T12:55:08.717Z,24.88
2017-03-26T12:56:21.451Z,25.02
2017-03-26T12:57:34.183Z,24.88
2017-03-26T12:58:47.433Z,24.47
2017-03-26T13:00:00.704Z,24.16
2017-03-26T13:01:13.438Z,24.21
2017-03-26T13:02:26.178Z,24.53
2017-03-26T13:03:38.932Z,24.69
2017-03-26T13:04:52.230Z,24.9
2017-03-26T13:06:05.475Z,25.17
2017-03-26T13:07:18.214Z,25.55
2017-03-26T13:08:31.461Z,25.7
2017-03-26T13:09:44.239Z,26.28
2017-03-26T13:10:57.473Z,25.7
2017-03-26T13:12:10.737Z,25.69
2017-03-26T13:13:23.467Z,25.75
2017-03-26T13:14:35.695Z,25.61
2017-03-26T13:15:48.970Z,25.3
2017-03-26T13:17:02.218Z,24.95
2017-03-26T13:18:15.533Z,24.9
2017-03-26T13:19:28.785Z,25.32
2017-03-26T13:20:42.032Z,25.54
2017-03-26T13:21:54.266Z,26.01
2017-03-26T13:23:06.502Z,26.57
2017-03-26T13:24:19.786Z,27.09
2017-03-26T13:25:33.076Z,27.43
2017-03-26T13:26:46.304Z,27.54
2017-03-26T13:27:59.581Z,27.51
2017-03-26T13:29:44.026Z,27.57
2017-03-26T13:30:56.736Z,26.77
2017-03-26T13:32:09.453Z,26.06
2017-03-26T13:33:22.725Z,25.46
2017-03-26T13:34:36.002Z,25.14
2017-03-26T13:35:49.308Z,24.98
2017-03-26T13:37:02.561Z,24.9
2017-03-26T13:38:15.825Z,25.1
2017-03-26T13:39:29.100Z,25.45
2017-03-26T13:40:42.352Z,26.07
2017-03-26T13:41:55.617Z,26.6
2017-03-26T13:43:08.846Z,26.94
2017-03-26T13:44:22.190Z,26.95
2017-03-26T13:45:34.430Z,26.73
2017-03-26T13:46:47.678Z,26.35
2017-03-26T13:48:00.914Z,25.98
2017-03-26T13:49:14.163Z,26.54
2017-03-26T13:50:27.461Z,27.09
2017-03-26T13:51:40.254Z,27.06
2017-03-26T13:52:53.512Z,26.62
2017-03-26T13:54:06.777Z,26.21
2017-03-26T13:55:19.540Z,25.65
2017-03-26T13:56:32.787Z,25.39
2017-03-26T13:57:46.060Z,25.38
2017-03-26T13:58:59.345Z,25.3
2017-03-26T14:00:12.103Z,25.39
2017-03-26T14:01:25.358Z,25.43
2017-03-26T14:02:38.084Z,25.7
2017-03-26T14:03:50.856Z,25.98
2017-03-26T14:05:04.135Z,26.29
2017-03-26T14:06:17.395Z,26.62
2017-03-26T14:07:30.163Z,27.09
2017-03-26T14:08:43.455Z,27.44
2017-03-26T14:09:56.179Z,27.12
2017-03-26T14:11:09.430Z,26.69
2017-03-26T14:12:22.649Z,26.66
2017-03-26T14:13:35.905Z,26.7
2017-03-26T14:14:49.179Z,26.58
2017-03-26T14:16:02.492Z,26.97
2017-03-26T14:17:15.774Z,26.57
2017-03-26T14:18:29.063Z,26.23
2017-03-26T14:19:42.383Z,25.6
2017-03-26T14:20:55.634Z,25.51
2017-03-26T14:22:08.875Z,25.54
2017-03-26T14:23:22.137Z,25.83
2017-03-26T14:24:35.406Z,25.76
2017-03-26T14:25:48.105Z,25.64
2017-03-26T14:27:01.348Z,25.82
2017-03-26T14:28:13.610Z,26.25
2017-03-26T14:29:26.896Z,26.52
2017-03-26T14:30:39.640Z,26.72
2017-03-26T14:31:52.875Z,26.7
2017-03-26T14:33:06.161Z,26.91
2017-03-26T14:34:19.430Z,26.81
2017-03-26T14:35:32.182Z,26.81
2017-03-26T14:36:45.459Z,27.1
2017-03-26T14:37:58.193Z,27.66
2017-03-26T14:39:11.460Z,27.59
2017-03-26T14:40:24.714Z,27.24
2017-03-26T14:41:37.969Z,27.59
2017-03-26T14:42:51.214Z,27.55
2017-03-26T14:44:04.468Z,27.43
2017-03-26T14:45:17.753Z,27.03
2017-03-26T14:46:31.012Z,26.44
2017-03-26T14:47:44.231Z,26.12
2017-03-26T14:48:57.487Z,26.01
2017-03-26T14:50:09.735Z,26.25
2017-03-26T14:51:22.491Z,26.87
2017-03-26T14:52:35.218Z,27.21
2017-03-26T14:53:48.465Z,27.9
2017-03-26T14:55:01.698Z,27.88
2017-03-26T14:56:14.427Z,27.9
2017-03-26T14:57:27.653Z,27.94
2017-03-26T14:58:40.932Z,27.6
2017-03-26T14:59:54.249Z,27.28
2017-03-26T15:01:07.023Z,27.31
2017-03-26T15:02:20.241Z,27.43
2017-03-26T15:03:33.485Z,27.31
2017-03-26T15:04:46.197Z,27.66
2017-03-26T15:05:59.442Z,27.96
2017-03-26T15:07:12.676Z,28.3
2017-03-26T15:08:25.882Z,28.22
2017-03-26T15:09:38.621Z,28.29
2017-03-26T15:10:51.867Z,28.48
2017-03-26T15:12:04.587Z,28.89
2017-03-26T15:13:16.889Z,28.9
2017-03-26T15:14:29.651Z,28.88
2017-03-26T15:15:42.363Z,28.54
2017-03-26T15:16:55.627Z,28.02
2017-03-26T15:18:08.386Z,27.94
2017-03-26T15:19:21.115Z,27.65
2017-03-26T15:20:34.371Z,27.04
2017-03-26T15:21:47.585Z,27.12
2017-03-26T15:23:00.322Z,27.5
2017-03-26T15:24:13.569Z,27.96
2017-03-26T15:25:26.325Z,28.36
2017-03-26T15:26:39.628Z,28.62
2017-03-26T15:27:52.866Z,28.9
2017-03-26T15:29:06.132Z,29.19
2017-03-26T15:30:19.379Z,29.43
2017-03-26T15:31:32.141Z,29.53
2017-03-26T15:32:44.890Z,29.68
2017-03-26T15:33:57.657Z,29.33
2017-03-26T15:35:10.384Z,29.16
2017-03-26T15:36:23.640Z,29.12
2017-03-26T15:37:36.376Z,29.39
2017-03-26T15:38:49.614Z,29.45
2017-03-26T15:40:02.886Z,29.16
2017-03-26T15:41:15.627Z,28.98
2017-03-26T15:42:28.380Z,29.14
2017-03-26T15:43:41.660Z,29.28
2017-03-26T15:44:54.428Z,29.34
2017-03-26T15:46:07.670Z,29.16
2017-03-26T15:47:20.935Z,29.43
2017-03-26T15:48:34.193Z,29.18